메인 페이지
METAR-TAF:

METAR-TAF

공항 :

South Wood County Airport (Alexander Field)

Wisconsin Rapids, 위스콘신, 미국

위도: 44-21-33N, 경도: 089-50-13W, 고도: 311m

현재 날씨관측

예보는 22분 전, 17:54시(UTC)에 발표되었습니다.
동남동9kt
온도 13°C
습도 88%
기압 1017 hPa
시정: 16.1km
고도 800ft 상공 흐림

METAR: KISW 241754Z AUTO 11009KT 10SM OVC008 13/11 A3003 RMK AO2 SLP172 60002 T01280106 10133 20100 58022 TSNO

시각: 13:16 (18:16 UTC)


TAF: 누락

4,000개 이상의 공항 관측 자료 및 예보 (METAR 및 TAF 보고).

지도상에서 검색 가능한 기상관측소가 노란 점과 빨간 점으로 표시되어 있습니다.

기상관측소 명을 보려면 표시 위로 마우스를 이동하세요.

날씨 관측과 예보를 보려면 클릭하세요.

지도 변경 : 확대하려면 엑스 표시가 있는 녹색 버튼, 축소하려면 빼기 표시가 있는 녹색 버튼, 다음 페이지의 지도를 보려면 녹색 화살표를 클릭하세요.


METAR-TAF: